Time;durP1;ratioP1;P1;durP2;ratioP2;P2;SDS_P1;SDS_P2;PMS_P1;PMS_P2;Temp;Humidity;BMP_temperature;BMP_pressure;BME280_temperature;BME280_humidity;BME280_pressure;Samples;Min_cycle;Max_cycle;Signal;HPM_P1;HPM_P2
2021/01/25 00:00:58;;;;;;;24.85;4.78;;;14.80;99.90;;;;;;5133791;27;20031;-96
2021/01/25 00:03:26;;;;;;;36.00;22.10;;;14.80;99.90;;;;;;5132543;27;20055;-96
2021/01/25 00:05:57;;;;;;;32.50;24.60;;;14.80;99.90;;;;;;5117288;27;20775;-96
2021/01/25 00:08:26;;;;;;;29.83;20.75;;;14.80;99.90;;;;;;5130982;27;20035;-96
2021/01/25 00:10:54;;;;;;;39.55;22.58;;;14.70;99.90;;;;;;5114162;27;20063;-95
2021/01/25 00:13:21;;;;;;;36.13;22.83;;;14.60;99.90;;;;;;5116286;27;20043;-95
2021/01/25 00:15:50;;;;;;;31.27;24.37;;;14.40;99.90;;;;;;5133434;27;20040;-95
2021/01/25 00:18:18;;;;;;;29.87;21.15;;;14.20;99.90;;;;;;5115148;27;20106;-96
2021/01/25 00:20:46;;;;;;;24.65;20.35;;;14.00;99.90;;;;;;5116522;27;20071;-95
2021/01/25 00:23:14;;;;;;;29.50;22.20;;;13.90;99.90;;;;;;5133418;27;20039;-96
2021/01/25 00:25:42;;;;;;;24.33;20.62;;;13.80;99.90;;;;;;5116277;27;20460;-96
2021/01/25 00:28:10;;;;;;;26.42;23.73;;;14.10;99.90;;;;;;5132676;27;20023;-96
2021/01/25 00:30:38;;;;;;;26.35;23.75;;;14.10;99.90;;;;;;5115823;27;20024;-96
2021/01/25 00:33:06;;;;;;;26.37;23.73;;;14.10;99.90;;;;;;5113722;27;20059;-95
2021/01/25 00:35:36;;;;;;;28.00;23.42;;;14.10;99.90;;;;;;5114899;27;20076;-96
2021/01/25 00:38:12;;;;;;;25.80;23.40;;;14.00;99.90;;;;;;5115777;27;20449;-96
2021/01/25 00:40:46;;;;;;;22.85;20.45;;;14.00;99.90;;;;;;5132922;27;20035;-95
2021/01/25 00:43:17;;;;;;;21.12;19.12;;;14.00;99.90;;;;;;5117787;27;20024;-96
2021/01/25 00:45:46;;;;;;;19.77;11.93;;;14.00;99.90;;;;;;5134812;27;20023;-95
2021/01/25 00:48:15;;;;;;;20.52;18.40;;;14.00;99.90;;;;;;5133230;27;20035;-96
2021/01/25 00:50:49;;;;;;;26.35;23.95;;;14.00;99.90;;;;;;5134445;27;20028;-96
2021/01/25 00:53:17;;;;;;;23.75;21.27;;;14.00;99.90;;;;;;5117619;27;20032;-95
2021/01/25 00:55:57;;;;;;;22.85;20.45;;;14.10;99.90;;;;;;5119443;27;20039;-96
2021/01/25 00:58:25;;;;;;;26.12;23.67;;;14.20;99.90;;;;;;5135179;27;20054;-95
2021/01/25 01:00:54;;;;;;;28.40;24.60;;;14.30;99.90;;;;;;5116892;27;20024;-95
2021/01/25 01:03:22;;;;;;;31.73;23.90;;;;;;;;;;5116817;27;20027;-94
2021/01/25 01:05:54;;;;;;;21.33;19.35;;;14.30;99.90;;;;;;5134707;27;20347;-96
2021/01/25 01:08:22;;;;;;;22.67;20.55;;;14.20;99.90;;;;;;5115924;27;20026;-96
2021/01/25 01:10:54;;;;;;;25.37;19.83;;;14.20;99.90;;;;;;5115875;27;20063;-96
2021/01/25 01:13:24;;;;;;;29.73;20.52;;;14.10;99.90;;;;;;5116059;27;20036;-96
2021/01/25 01:16:00;;;;;;;26.77;21.98;;;14.20;99.90;;;;;;5134464;27;20034;-95
2021/01/25 01:18:43;;;;;;;25.73;16.40;;;14.00;99.90;;;;;;5134081;27;20047;-96
2021/01/25 01:21:16;;;;;;;31.62;21.30;;;13.80;99.90;;;;;;5151564;27;20056;-96
2021/01/25 01:23:51;;;;;;;29.00;22.95;;;13.70;99.90;;;;;;5149508;27;20349;-96
2021/01/25 01:26:20;;;;;;;26.55;23.23;;;13.70;99.90;;;;;;5148107;27;20422;-96
2021/01/25 01:28:52;;;;;;;25.17;22.70;;;13.70;99.90;;;;;;5132330;27;20032;-96
2021/01/25 01:31:21;;;;;;;22.02;19.85;;;13.40;99.90;;;;;;5132730;27;20438;-96
2021/01/25 01:33:54;;;;;;;23.05;18.85;;;13.40;99.90;;;;;;5132887;27;20017;-95
2021/01/25 01:36:29;;;;;;;14.55;7.93;;;13.30;99.90;;;;;;5132241;27;20046;-96
2021/01/25 01:38:57;;;;;;;14.73;6.12;;;13.20;99.90;;;;;;5133072;27;20049;-96
2021/01/25 01:41:37;;;;;;;17.12;12.05;;;13.30;99.90;;;;;;5134076;27;20102;-94
2021/01/25 01:44:14;;;;;;;20.33;8.45;;;13.30;99.90;;;;;;5132956;27;20207;-96
2021/01/25 01:46:49;;;;;;;19.62;12.57;;;13.30;99.90;;;;;;5148853;27;20066;-96
2021/01/25 01:49:17;;;;;;;14.93;9.00;;;13.30;99.90;;;;;;5149970;27;20055;-96
2021/01/25 01:51:51;;;;;;;13.05;9.55;;;13.30;99.90;;;;;;5131533;27;20035;-94
2021/01/25 01:54:25;;;;;;;18.75;12.07;;;13.20;99.90;;;;;;5131942;27;20030;-96
2021/01/25 01:56:53;;;;;;;15.55;9.18;;;13.20;99.90;;;;;;5132194;27;20039;-94
2021/01/25 01:59:24;;;;;;;18.25;9.18;;;13.30;99.90;;;;;;5132901;27;20024;-96
2021/01/25 02:01:55;;;;;;;14.20;8.23;;;13.40;99.90;;;;;;5134520;27;20023;-95
2021/01/25 02:04:28;;;;;;;16.23;9.00;;;13.40;99.90;;;;;;5133432;27;20330;-96
2021/01/25 02:07:01;;;;;;;14.35;8.75;;;13.50;99.90;;;;;;5148585;27;20106;-96
2021/01/25 02:09:36;;;;;;;21.37;9.27;;;13.60;99.90;;;;;;5150390;27;20047;-94
2021/01/25 02:12:07;;;;;;;25.45;10.93;;;13.70;99.90;;;;;;5131845;27;20035;-95
2021/01/25 02:14:47;;;;;;;;;;;;;;;;;;;;;
2021/01/25 02:17:16;;;;;;;21.40;16.75;;;13.60;99.90;;;;;;5113055;28;20020;-96
2021/01/25 02:20:22;;;;;;;16.15;14.57;;;13.60;99.90;;;;;;5129007;28;20042;-96
2021/01/25 02:23:08;;;;;;;19.87;16.77;;;13.50;99.90;;;;;;5097255;28;20080;-96
2021/01/25 02:25:56;;;;;;;24.77;17.08;;;13.40;99.90;;;;;;5095770;28;20032;-96
2021/01/25 02:28:24;;;;;;;;;;;13.40;99.90;;;;;;5147424;27;20032;-96
2021/01/25 02:30:52;;;;;;;20.95;12.15;;;13.40;99.90;;;;;;5112548;28;20327;-96
2021/01/25 02:33:32;;;;;;;17.85;15.52;;;13.20;99.90;;;;;;5137051;27;20033;-96
2021/01/25 02:36:02;;;;;;;14.75;13.40;;;13.10;99.90;;;;;;5111979;28;20055;-96
2021/01/25 02:38:36;;;;;;;17.35;15.90;;;12.90;99.90;;;;;;5112308;28;20449;-95
2021/01/25 02:41:09;;;;;;;19.92;16.83;;;12.90;99.90;;;;;;5092866;28;20039;-95
2021/01/25 02:43:42;;;;;;;17.90;15.27;;;13.00;99.90;;;;;;5094248;28;20054;-95
2021/01/25 02:46:25;;;;;;;;;;;;;;;;;;;;;
2021/01/25 02:48:56;;;;;;;12.05;3.95;;;13.00;99.90;;;;;;5114902;28;20031;-96
2021/01/25 02:51:24;;;;;;;15.75;4.90;;;13.00;99.90;;;;;;5112355;28;20058;-95
2021/01/25 02:53:58;;;;;;;16.00;5.97;;;12.90;99.90;;;;;;5150782;27;20031;-94
2021/01/25 02:56:32;;;;;;;23.02;11.88;;;13.00;99.90;;;;;;5136322;28;20136;-95
2021/01/25 02:59:00;;;;;;;20.83;14.45;;;13.00;99.90;;;;;;5080507;28;20023;-95
2021/01/25 03:01:31;;;;;;;17.12;15.52;;;13.10;99.90;;;;;;5096604;28;20058;-95
2021/01/25 03:04:00;;;;;;;28.92;17.12;;;13.20;99.90;;;;;;5113801;28;20402;-96
2021/01/25 03:06:29;;;;;;;21.35;16.30;;;13.20;99.90;;;;;;5148305;27;20024;-95
2021/01/25 03:08:59;;;;;;;18.05;15.40;;;13.10;99.90;;;;;;5146831;27;20032;-96
2021/01/25 03:11:30;;;;;;;19.17;16.05;;;13.20;99.90;;;;;;5095858;28;20020;-96
2021/01/25 03:14:12;;;;;;;27.67;15.20;;;13.10;99.90;;;;;;5100572;27;20654;-96
2021/01/25 03:16:39;;;;;;;22.60;12.57;;;13.10;99.90;;;;;;5117214;27;20027;-96
2021/01/25 03:19:11;;;;;;;16.33;13.77;;;13.40;99.90;;;;;;5150957;27;20027;-95
2021/01/25 03:21:54;;;;;;;15.77;13.75;;;13.10;99.90;;;;;;5134138;27;20106;-95
2021/01/25 03:24:25;;;;;;;15.48;13.95;;;13.10;99.90;;;;;;5149283;27;20457;-95
2021/01/25 03:27:01;;;;;;;13.77;5.78;;;13.10;99.90;;;;;;5132005;27;20036;-96
2021/01/25 03:29:32;;;;;;;11.07;2.85;;;13.10;99.90;;;;;;5150094;27;20039;-96
2021/01/25 03:32:00;;;;;;;11.30;3.15;;;13.10;99.90;;;;;;5130549;27;20460;-96
2021/01/25 03:34:29;;;;;;;23.35;15.02;;;13.10;99.90;;;;;;5116080;27;20034;-96
2021/01/25 03:37:03;;;;;;;20.77;14.68;;;12.90;99.90;;;;;;5114796;27;20042;-96
2021/01/25 03:39:38;;;;;;;19.73;14.13;;;13.00;99.90;;;;;;5133607;27;20024;-96
2021/01/25 03:42:11;;;;;;;15.02;13.43;;;12.90;99.90;;;;;;5133630;27;20031;-96
2021/01/25 03:44:40;;;;;;;23.58;15.93;;;13.20;99.90;;;;;;5133147;27;20496;-96
2021/01/25 03:47:12;;;;;;;16.25;14.50;;;12.90;99.90;;;;;;5151083;27;20024;-96
2021/01/25 03:49:41;;;;;;;27.60;16.42;;;13.20;99.90;;;;;;5132357;27;20080;-95
2021/01/25 03:52:09;;;;;;;23.65;14.02;;;12.80;99.90;;;;;;5133284;27;20042;-94
2021/01/25 03:54:40;;;;;;;19.70;14.93;;;12.90;99.90;;;;;;5117931;27;20028;-96
2021/01/25 03:57:09;;;;;;;15.77;11.95;;;12.70;99.90;;;;;;5134305;27;20032;-96
2021/01/25 03:59:36;;;;;;;14.82;11.65;;;13.00;99.90;;;;;;5133651;27;20472;-96
2021/01/25 04:02:07;;;;;;;16.35;13.10;;;13.10;99.90;;;;;;5134199;27;20071;-96
2021/01/25 04:04:37;;;;;;;21.55;14.20;;;13.30;99.90;;;;;;5133570;27;20030;-96
2021/01/25 04:07:06;;;;;;;26.55;17.00;;;13.40;99.90;;;;;;5151511;27;20019;-96
2021/01/25 04:09:39;;;;;;;18.77;17.00;;;13.30;99.90;;;;;;5117931;27;20040;-94
2021/01/25 04:12:07;;;;;;;19.92;17.62;;;13.30;99.90;;;;;;5116591;27;20035;-96
2021/01/25 04:14:35;;;;;;;27.83;18.67;;;13.30;99.90;;;;;;5117516;27;20024;-96
2021/01/25 04:17:08;;;;;;;20.42;18.58;;;13.40;99.90;;;;;;5135091;27;20097;-94
2021/01/25 04:19:42;;;;;;;24.12;19.70;;;13.40;99.90;;;;;;5134948;27;20035;-95
2021/01/25 04:22:10;;;;;;;21.55;19.55;;;13.20;99.90;;;;;;5134736;27;20023;-95
2021/01/25 04:24:49;;;;;;;27.30;21.27;;;13.20;99.90;;;;;;5150470;27;20032;-96
2021/01/25 04:27:20;;;;;;;29.20;23.02;;;13.20;99.90;;;;;;5134571;27;20537;-96
2021/01/25 04:29:48;;;;;;;32.08;22.65;;;13.20;99.90;;;;;;5134566;27;20036;-94
2021/01/25 04:32:26;;;;;;;;;;;;;;;;;;;;;
2021/01/25 04:34:55;;;;;;;35.92;22.10;;;13.40;99.90;;;;;;5135333;27;20399;-96
2021/01/25 04:37:23;;;;;;;36.03;22.27;;;13.40;99.90;;;;;;5151623;27;20082;-93
2021/01/25 04:39:51;;;;;;;28.40;22.20;;;13.40;99.90;;;;;;5150694;27;20032;-93
2021/01/25 04:42:25;;;;;;;29.45;22.08;;;13.40;99.90;;;;;;5133044;27;20055;-93
2021/01/25 04:44:53;;;;;;;33.25;29.90;;;13.80;99.90;;;;;;5150804;27;20032;-94
2021/01/25 04:47:24;;;;;;;36.03;23.23;;;14.00;99.90;;;;;;5133828;27;20024;-96
2021/01/25 04:49:53;;;;;;;36.80;27.62;;;14.10;99.90;;;;;;5117669;27;20028;-94
2021/01/25 04:52:28;;;;;;;35.25;27.92;;;14.30;99.90;;;;;;5117120;27;20430;-95
2021/01/25 04:55:00;;;;;;;36.08;27.20;;;14.40;99.90;;;;;;5133737;27;20074;-95
2021/01/25 04:57:36;;;;;;;34.50;25.40;;;14.30;99.90;;;;;;5135986;27;20115;-95
2021/01/25 05:00:07;;;;;;;40.22;29.75;;;14.40;99.90;;;;;;5116766;27;20032;-94
2021/01/25 05:02:39;;;;;;;;;;;14.20;99.90;;;;;;5133286;27;20051;-96
2021/01/25 05:05:12;;;;;;;40.05;23.35;;;14.20;99.90;;;;;;5132836;27;20039;-94
2021/01/25 05:07:42;;;;;;;33.50;25.25;;;14.30;99.90;;;;;;5134124;27;20350;-94
2021/01/25 05:10:25;;;;;;;33.83;24.65;;;14.50;99.90;;;;;;5117457;27;20035;-94
2021/01/25 05:12:53;;;;;;;35.28;25.65;;;14.30;99.90;;;;;;5116051;27;20436;-96
2021/01/25 05:15:26;;;;;;;32.40;13.43;;;14.20;99.90;;;;;;5149624;27;20051;-94
2021/01/25 05:18:03;;;;;;;33.55;20.70;;;13.80;99.90;;;;;;5116479;27;20026;-96
2021/01/25 05:20:36;;;;;;;24.63;11.35;;;14.20;99.90;;;;;;5118697;27;20016;-96
2021/01/25 05:23:15;;;;;;;32.45;25.10;;;14.10;99.90;;;;;;5132244;27;20036;-95
2021/01/25 05:25:46;;;;;;;24.37;17.73;;;14.10;99.90;;;;;;5116227;27;20069;-95
2021/01/25 05:28:19;;;;;;;19.17;14.15;;;14.10;99.90;;;;;;5133002;27;20740;-95
2021/01/25 05:30:48;;;;;;;24.58;17.50;;;14.10;99.90;;;;;;5116638;27;20050;-95
2021/01/25 05:33:26;;;;;;;24.23;19.33;;;14.10;99.90;;;;;;5134153;27;20034;-96
2021/01/25 05:36:00;;;;;;;29.63;19.75;;;14.10;99.90;;;;;;5118148;27;20047;-95
2021/01/25 05:38:32;;;;;;;25.27;21.15;;;14.10;99.90;;;;;;5133515;27;20102;-96
2021/01/25 05:41:07;;;;;;;35.55;23.35;;;14.10;99.90;;;;;;5116682;27;20028;-95
2021/01/25 05:43:35;;;;;;;28.65;20.88;;;14.10;99.90;;;;;;5118337;27;20090;-96
2021/01/25 05:46:11;;;;;;;21.48;19.20;;;14.00;99.90;;;;;;5151489;27;20040;-95
2021/01/25 05:48:55;;;;;;;27.50;21.33;;;14.00;99.90;;;;;;5134097;27;20346;-95
2021/01/25 05:51:33;;;;;;;24.23;19.98;;;14.00;99.90;;;;;;5101113;27;20090;-95
2021/01/25 05:54:02;;;;;;;28.42;20.05;;;14.00;99.90;;;;;;5133268;27;20030;-95
2021/01/25 05:56:33;;;;;;;29.63;25.92;;;14.00;99.90;;;;;;5117840;27;20062;-95
2021/01/25 05:59:03;;;;;;;34.80;25.30;;;14.40;99.90;;;;;;5133538;27;20074;-96
2021/01/25 06:01:31;;;;;;;26.87;23.98;;;14.10;99.90;;;;;;5133298;27;20075;-96
2021/01/25 06:04:06;;;;;;;25.95;23.12;;;14.30;99.90;;;;;;5117541;27;20019;-96
2021/01/25 06:06:34;;;;;;;28.85;20.65;;;14.60;99.90;;;;;;5134308;27;20031;-96
2021/01/25 06:09:16;;;;;;;29.45;21.12;;;14.40;99.90;;;;;;5134437;27;20035;-96
2021/01/25 06:11:46;;;;;;;26.52;19.50;;;14.40;99.90;;;;;;5117023;27;20624;-96
2021/01/25 06:14:40;;;;;;;31.15;19.58;;;14.50;99.90;;;;;;5152391;27;20047;-96
2021/01/25 06:17:17;;;;;;;29.95;19.90;;;14.50;99.90;;;;;;5135208;27;20023;-96
2021/01/25 06:19:52;;;;;;;26.52;21.00;;;14.70;99.90;;;;;;5134095;27;20067;-96
2021/01/25 06:22:20;;;;;;;25.90;21.17;;;14.40;99.90;;;;;;5152029;27;20027;-96
2021/01/25 06:24:55;;;;;;;29.75;21.27;;;14.50;99.90;;;;;;5133153;27;20033;-96
2021/01/25 06:27:30;;;;;;;25.42;19.42;;;14.50;99.90;;;;;;5133262;27;20434;-96
2021/01/25 06:30:04;;;;;;;28.75;20.00;;;14.50;99.90;;;;;;5116264;27;20046;-95
2021/01/25 06:32:50;;;;;;;25.98;18.83;;;14.30;99.90;;;;;;5132314;27;20023;-95
2021/01/25 06:35:31;;;;;;;27.02;18.62;;;14.30;99.90;;;;;;5133236;27;20083;-96
2021/01/25 06:38:03;;;;;;;23.62;19.35;;;14.40;99.90;;;;;;5116055;27;20415;-96
2021/01/25 06:40:32;;;;;;;28.15;19.60;;;14.60;99.90;;;;;;5115444;27;20461;-95
2021/01/25 06:43:22;;;;;;;31.05;19.35;;;14.40;99.90;;;;;;5132194;27;20070;-95
2021/01/25 06:45:50;;;;;;;24.60;19.12;;;14.40;99.90;;;;;;5132187;27;20043;-96
2021/01/25 06:48:22;;;;;;;27.95;18.85;;;14.40;99.90;;;;;;5131645;27;20039;-95
2021/01/25 06:50:56;;;;;;;27.05;19.10;;;14.60;99.90;;;;;;5116412;27;20419;-96
2021/01/25 06:53:32;;;;;;;29.83;19.27;;;14.70;99.90;;;;;;5132791;27;20032;-95
2021/01/25 06:56:01;;;;;;;29.92;19.45;;;14.60;99.90;;;;;;5132553;27;20066;-96
2021/01/25 06:58:33;;;;;;;28.92;19.58;;;14.60;99.90;;;;;;5150352;27;20027;-96
2021/01/25 07:01:08;;;;;;;22.60;19.50;;;14.60;99.90;;;;;;5117540;27;20075;-96
2021/01/25 07:03:59;;;;;;;29.45;19.48;;;14.60;99.90;;;;;;5151284;27;20066;-96
2021/01/25 07:06:47;;;;;;;26.40;19.70;;;14.60;99.90;;;;;;5117347;27;20030;-96
2021/01/25 07:09:29;;;;;;;28.23;19.15;;;14.70;99.90;;;;;;5119147;27;20862;-94
2021/01/25 07:12:03;;;;;;;24.23;19.43;;;14.70;99.90;;;;;;5140072;27;20431;-94
2021/01/25 07:14:32;;;;;;;22.42;18.73;;;14.60;99.90;;;;;;5137385;27;20047;-96
2021/01/25 07:17:21;;;;;;;23.23;18.52;;;14.60;99.90;;;;;;5120427;27;20043;-96
2021/01/25 07:19:49;;;;;;;29.42;19.33;;;14.60;99.90;;;;;;5135489;27;20023;-96
2021/01/25 07:22:21;;;;;;;26.20;19.10;;;14.60;99.90;;;;;;5134207;27;20027;-96
2021/01/25 07:24:49;;;;;;;32.42;18.50;;;14.60;99.90;;;;;;5133363;27;20035;-96
2021/01/25 07:27:17;;;;;;;35.47;20.48;;;14.70;99.90;;;;;;5133530;27;20035;-95
2021/01/25 07:29:50;;;;;;;34.20;19.33;;;14.70;99.90;;;;;;5133947;27;20035;-96
2021/01/25 07:32:26;;;;;;;34.38;17.05;;;15.00;99.90;;;;;;5134657;27;20454;-96
2021/01/25 07:34:58;;;;;;;30.92;16.48;;;14.70;99.90;;;;;;5150564;27;20028;-96
2021/01/25 07:37:30;;;;;;;31.30;17.87;;;14.80;99.90;;;;;;5133699;27;20027;-96
2021/01/25 07:40:01;;;;;;;27.60;16.55;;;14.90;99.90;;;;;;5117528;27;20023;-95
2021/01/25 07:42:30;;;;;;;28.77;18.67;;;14.90;99.90;;;;;;5133443;27;20027;-96
2021/01/25 07:44:58;;;;;;;27.45;18.10;;;14.90;99.90;;;;;;5134445;27;20031;-96
2021/01/25 07:47:31;;;;;;;30.80;17.95;;;14.90;99.90;;;;;;5134191;27;20035;-96
2021/01/25 07:50:07;;;;;;;31.45;21.37;;;14.90;99.90;;;;;;5134989;27;20078;-96
2021/01/25 07:52:42;;;;;;;27.27;17.95;;;14.90;99.90;;;;;;5131772;27;20027;-96
2021/01/25 07:55:14;;;;;;;27.60;17.62;;;15.00;99.90;;;;;;5152108;27;20031;-96
2021/01/25 07:57:45;;;;;;;24.50;18.10;;;15.10;99.90;;;;;;5134731;27;20425;-96
2021/01/25 08:00:19;;;;;;;26.02;17.48;;;15.20;99.90;;;;;;5135414;27;20051;-96
2021/01/25 08:03:24;;;;;;;22.87;17.08;;;15.30;99.90;;;;;;5133581;27;20046;-96
2021/01/25 08:06:00;;;;;;;35.35;18.48;;;15.20;99.90;;;;;;5106465;27;20024;-96
2021/01/25 08:08:29;;;;;;;34.22;17.48;;;15.20;99.90;;;;;;5135310;27;20027;-96
2021/01/25 08:10:58;;;;;;;26.85;18.25;;;15.30;99.90;;;;;;5135438;27;20040;-95
2021/01/25 08:13:37;;;;;;;23.90;19.25;;;15.40;99.90;;;;;;5118941;27;20039;-96
2021/01/25 08:16:11;;;;;;;30.27;16.77;;;15.40;99.90;;;;;;5119280;27;20019;-96
2021/01/25 08:18:48;;;;;;;25.03;15.13;;;15.20;99.90;;;;;;5119422;27;20028;-96
2021/01/25 08:21:44;;;;;;;22.87;13.07;;;15.50;99.90;;;;;;5119159;27;20031;-96
2021/01/25 08:24:14;;;;;;;20.58;13.55;;;15.50;99.90;;;;;;5137435;27;20055;-96
2021/01/25 08:26:56;;;;;;;21.05;14.20;;;15.60;99.90;;;;;;5123746;27;20042;-96
2021/01/25 08:29:46;;;;;;;20.80;3.70;;;15.70;99.90;;;;;;5137522;27;20050;-96
2021/01/25 08:32:46;;;;;;;16.73;4.07;;;17.10;99.90;;;;;;5143476;27;20051;-96
2021/01/25 08:35:32;;;;;;;25.12;20.90;;;16.50;99.90;;;;;;5141322;27;20044;-96
2021/01/25 08:38:30;;;;;;;19.50;17.40;;;16.80;99.90;;;;;;5140614;27;20028;-96
2021/01/25 08:41:28;;;;;;;20.37;16.92;;;17.30;99.90;;;;;;5119425;27;20024;-95
2021/01/25 08:44:02;;;;;;;18.37;16.42;;;17.50;99.90;;;;;;5110749;27;20059;-94
2021/01/25 08:46:34;;;;;;;14.57;6.47;;;17.50;99.90;;;;;;5133903;27;20029;-96
2021/01/25 08:49:22;;;;;;;22.17;17.23;;;17.30;99.90;;;;;;5134494;27;20043;-95
2021/01/25 08:51:59;;;;;;;17.80;15.27;;;;;;;;;;5135512;27;20030;-94
2021/01/25 08:54:32;;;;;;;;;;;;;;;;;;5134000;27;20020;-94
2021/01/25 08:57:00;;;;;;;9.65;6.40;;;;;;;;;;5148905;27;19952;-93
2021/01/25 08:59:42;;;;;;;27.60;25.12;;;;;;;;;;5117027;27;20036;-93
2021/01/25 09:02:12;;;;;;;32.50;29.15;;;;;;;;;;5132212;27;20067;-92
2021/01/25 09:04:52;;;;;;;16.62;14.27;;;;;;;;;;5133039;27;20043;-94
2021/01/25 09:07:25;;;;;;;14.23;12.85;;;19.10;99.90;;;;;;5118372;27;20035;-96
2021/01/25 09:09:53;;;;;;;7.85;3.87;;;18.80;99.90;;;;;;5132978;27;20028;-93
2021/01/25 09:12:22;;;;;;;17.80;16.25;;;;;;;;;;5132515;27;20461;-95
2021/01/25 09:14:57;;;;;;;12.60;9.40;;;17.80;99.90;;;;;;5117206;27;20043;-95
2021/01/25 09:17:30;;;;;;;8.20;7.32;;;18.00;99.90;;;;;;5134307;27;20024;-94
2021/01/25 09:19:58;;;;;;;13.62;8.98;;;18.40;99.90;;;;;;5116485;27;20034;-93
2021/01/25 09:22:33;;;;;;;11.18;10.13;;;17.90;99.90;;;;;;5116697;27;20410;-95
2021/01/25 09:25:16;;;;;;;21.10;19.05;;;17.60;99.90;;;;;;5118814;27;20074;-94
2021/01/25 09:27:51;;;;;;;19.58;17.65;;;17.70;99.90;;;;;;5118255;27;20335;-94
2021/01/25 09:30:26;;;;;;;16.10;9.80;;;;;;;;;;5117700;27;20032;-95
2021/01/25 09:32:59;;;;;;;9.15;5.85;;;;;;;;;;5133402;27;20153;-96
2021/01/25 09:35:28;;;;;;;3.17;2.45;;;;;;;;;;5115909;27;20043;-94
2021/01/25 09:38:02;;;;;;;5.55;1.98;;;;;;;;;;5134129;27;20019;-95
2021/01/25 09:40:36;;;;;;;7.18;1.60;;;18.50;99.90;;;;;;5133735;27;20034;-94
2021/01/25 09:43:04;;;;;;;7.95;3.90;;;18.90;99.90;;;;;;5130712;27;20020;-93
2021/01/25 09:45:38;;;;;;;5.70;3.80;;;;;;;;;;5131617;27;20042;-96
2021/01/25 09:48:13;;;;;;;2.50;2.22;;;;;;;;;;5150883;27;20031;-96
2021/01/25 09:50:43;;;;;;;2.40;1.00;;;;;;;;;;5131086;27;20448;-96
2021/01/25 09:53:15;;;;;;;2.12;1.00;;;;;;;;;;5132701;27;20070;-95
2021/01/25 09:55:51;;;;;;;3.35;1.20;;;22.50;84.30;;;;;;5133568;27;20034;-95
2021/01/25 09:58:25;;;;;;;4.40;2.00;;;20.40;94.60;;;;;;5133152;27;20028;-95
2021/01/25 10:00:53;;;;;;;6.10;1.52;;;19.30;99.90;;;;;;5115798;27;20039;-95
2021/01/25 10:03:24;;;;;;;4.22;1.60;;;18.70;99.90;;;;;;5116373;27;20047;-95
2021/01/25 10:05:55;;;;;;;4.07;1.10;;;18.70;99.90;;;;;;5116499;27;20067;-96
2021/01/25 10:08:32;;;;;;;3.03;1.35;;;18.80;99.90;;;;;;5107856;27;20038;-93
2021/01/25 10:11:11;;;;;;;5.55;2.80;;;19.50;98.10;;;;;;5134761;27;20027;-94
2021/01/25 10:13:40;;;;;;;5.25;2.40;;;23.90;84.90;;;;;;5149502;27;20024;-94
2021/01/25 10:16:14;;;;;;;3.17;1.00;;;;;;;;;;5149602;27;20016;-94
2021/01/25 10:18:48;;;;;;;3.95;1.45;;;21.00;91.40;;;;;;5117039;27;20051;-95
2021/01/25 10:21:23;;;;;;;3.30;1.20;;;20.80;92.30;;;;;;5133393;27;20072;-94
2021/01/25 10:23:51;;;;;;;3.15;1.35;;;19.80;96.40;;;;;;5133505;27;20078;-94
2021/01/25 10:26:24;;;;;;;2.83;1.85;;;19.60;98.20;;;;;;5133469;27;20357;-95
2021/01/25 10:28:53;;;;;;;3.92;1.25;;;21.50;93.70;;;;;;5132209;27;20027;-95
2021/01/25 10:31:32;;;;;;;3.75;1.02;;;21.20;95.30;;;;;;5131050;27;20785;-96
2021/01/25 10:34:01;;;;;;;2.50;2.10;;;;;;;;;;5149029;27;20027;-94
2021/01/25 10:36:30;;;;;;;3.20;1.62;;;;;;;;;;5132062;27;20046;-94
2021/01/25 10:39:01;;;;;;;2.50;0.90;;;;;;;;;;5113765;27;20410;-94
2021/01/25 10:41:38;;;;;;;3.53;1.00;;;;;;;;;;5114944;27;20027;-95
2021/01/25 10:44:17;;;;;;;5.80;1.10;;;20.80;98.10;;;;;;5132398;27;20022;-96
2021/01/25 10:46:56;;;;;;;4.05;1.27;;;;;;;;;;5131431;27;20462;-96
2021/01/25 10:49:24;;;;;;;3.45;0.90;;;;;;;;;;5115204;27;20048;-95
2021/01/25 10:51:58;;;;;;;5.30;1.20;;;;;;;;;;5151018;27;20023;-94
2021/01/25 10:54:32;;;;;;;2.92;1.30;;;;;;;;;;5109272;27;20039;-94
2021/01/25 10:57:01;;;;;;;2.40;1.35;;;;;;;;;;5130809;27;20042;-94
2021/01/25 10:59:32;;;;;;;4.05;1.10;;;;;;;;;;5114960;27;20036;-95
2021/01/25 11:02:03;;;;;;;2.80;1.10;;;;;;;;;;5115842;27;20028;-96
2021/01/25 11:04:37;;;;;;;3.87;1.02;;;;;;;;;;5117233;27;20049;-95
2021/01/25 11:07:06;;;;;;;4.90;1.48;;;;;;;;;;5115879;27;20119;-95
2021/01/25 11:09:37;;;;;;;2.15;1.30;;;;;;;;;;5117116;27;20169;-96
2021/01/25 11:12:05;;;;;;;7.30;1.98;;;20.70;99.70;;;;;;5117299;27;20720;-96
2021/01/25 11:15:02;;;;;;;2.75;1.90;;;;;;;;;;5136157;27;20025;-96
2021/01/25 11:17:40;;;;;;;4.50;0.90;;;;;;;;;;5118630;27;20036;-95
2021/01/25 11:20:16;;;;;;;3.22;0.77;;;;;;;;;;5117856;27;20067;-96
2021/01/25 11:22:51;;;;;;;4.37;1.20;;;;;;;;;;5125896;27;20046;-95
2021/01/25 11:25:21;;;;;;;4.70;2.12;;;;;;;;;;5117178;27;20354;-95
2021/01/25 11:27:53;;;;;;;2.45;0.90;;;20.70;89.90;;;;;;5123462;27;20034;-96
2021/01/25 11:30:26;;;;;;;3.22;1.05;;;20.50;89.20;;;;;;5132939;27;20036;-94
2021/01/25 11:33:18;;;;;;;3.55;1.23;;;20.70;90.00;;;;;;5130136;27;20028;-96
2021/01/25 11:36:10;;;;;;;3.45;1.25;;;20.60;90.70;;;;;;5121957;27;20081;-96
2021/01/25 11:38:43;;;;;;;3.72;1.23;;;20.60;90.80;;;;;;5131436;27;20408;-96
2021/01/25 11:41:11;;;;;;;2.83;1.12;;;20.60;91.00;;;;;;5148028;27;20019;-96
2021/01/25 11:43:43;;;;;;;3.95;1.37;;;20.40;91.90;;;;;;5132358;27;20031;-94
2021/01/25 11:46:12;;;;;;;3.40;1.20;;;20.70;92.90;;;;;;5150157;27;20051;-95
2021/01/25 11:48:41;;;;;;;3.85;1.35;;;21.30;90.10;;;;;;5131471;27;20348;-94
2021/01/25 11:51:19;;;;;;;3.85;1.25;;;21.50;90.00;;;;;;5133072;27;20073;-95
2021/01/25 11:53:50;;;;;;;2.75;1.50;;;21.60;90.00;;;;;;5132517;27;20065;-93
2021/01/25 11:56:24;;;;;;;6.70;1.00;;;21.20;86.90;;;;;;5151963;27;20028;-95
2021/01/25 11:58:59;;;;;;;1.80;1.00;;;21.60;87.00;;;;;;5135420;27;20465;-94
2021/01/25 12:01:31;;;;;;;1.62;0.80;;;23.20;79.20;;;;;;5135645;27;20036;-94
2021/01/25 12:04:00;;;;;;;3.37;0.90;;;24.10;73.70;;;;;;5150791;27;20035;-95
2021/01/25 12:06:28;;;;;;;3.30;1.10;;;23.90;74.30;;;;;;5133939;27;20059;-95
2021/01/25 12:08:58;;;;;;;4.12;1.10;;;23.00;79.60;;;;;;5132885;27;20621;-95
2021/01/25 12:11:29;;;;;;;2.17;0.82;;;22.50;82.40;;;;;;5150845;27;20055;-96
2021/01/25 12:14:03;;;;;;;2.47;0.95;;;21.80;87.30;;;;;;5133783;27;20037;-96
2021/01/25 12:16:32;;;;;;;;;;;21.40;89.50;;;;;;5102681;27;20034;-95
2021/01/25 12:19:05;;;;;;;3.85;1.40;;;21.20;90.70;;;;;;5132299;27;20426;-95
2021/01/25 12:21:40;;;;;;;;;;;21.20;90.60;;;;;;5148571;27;20535;-96
2021/01/25 12:24:08;;;;;;;4.20;1.30;;;21.90;90.80;;;;;;5132134;27;19942;-95
2021/01/25 12:26:50;;;;;;;4.43;1.60;;;21.30;90.30;;;;;;5131298;27;20051;-94
2021/01/25 12:29:26;;;;;;;4.18;1.12;;;22.60;86.10;;;;;;5133734;27;20362;-96
2021/01/25 12:32:01;;;;;;;4.53;0.90;;;21.60;89.00;;;;;;5151301;27;20344;-96
2021/01/25 12:34:36;;;;;;;;;;;21.50;88.30;;;;;;5133585;27;20051;-95
2021/01/25 12:37:09;;;;;;;2.85;1.15;;;21.90;87.50;;;;;;5117609;27;19939;-95
2021/01/25 12:39:37;;;;;;;4.95;1.48;;;22.10;86.50;;;;;;5134180;27;20099;-96
2021/01/25 12:42:11;;;;;;;8.38;1.80;;;22.40;86.50;;;;;;5132784;27;20036;-96
2021/01/25 12:44:46;;;;;;;3.25;1.40;;;22.90;82.20;;;;;;5150102;27;20071;-96
2021/01/25 12:47:15;;;;;;;5.18;1.42;;;22.20;83.90;;;;;;5133740;27;20452;-96
2021/01/25 12:49:56;;;;;;;3.60;1.73;;;23.60;77.90;;;;;;5134204;27;20573;-96
2021/01/25 12:52:37;;;;;;;2.72;1.40;;;23.60;79.00;;;;;;5150423;27;20062;-96
2021/01/25 12:55:15;;;;;;;5.22;1.20;;;21.90;84.90;;;;;;5132935;27;20024;-96
2021/01/25 12:57:50;;;;;;;5.15;1.10;;;21.30;89.90;;;;;;5134164;27;20078;-96
2021/01/25 13:00:27;;;;;;;6.37;1.12;;;20.80;91.10;;;;;;5133960;27;20046;-96
2021/01/25 13:03:07;;;;;;;3.35;1.10;;;20.80;90.00;;;;;;5134677;27;20338;-96
2021/01/25 13:05:35;;;;;;;2.47;0.90;;;21.80;87.10;;;;;;5117577;27;20059;-95
2021/01/25 13:08:10;;;;;;;3.85;1.15;;;21.40;86.30;;;;;;5134836;27;20051;-96
2021/01/25 13:10:38;;;;;;;2.90;0.90;;;22.00;86.20;;;;;;5133481;27;20461;-95
2021/01/25 13:13:13;;;;;;;3.05;0.85;;;22.10;86.70;;;;;;5150868;27;20103;-96
2021/01/25 13:15:47;;;;;;;1.98;0.95;;;21.70;85.30;;;;;;5134156;27;20043;-96
2021/01/25 13:18:21;;;;;;;3.47;1.00;;;21.70;85.90;;;;;;5133504;27;20071;-95
2021/01/25 13:21:11;;;;;;;3.20;0.90;;;21.50;86.80;;;;;;5133397;27;20046;-96
2021/01/25 13:23:39;;;;;;;4.45;0.93;;;21.90;84.60;;;;;;5117517;27;20024;-95